createdAt,value
2019-06-26T00:00:12.479Z,49.90
2019-06-26T00:02:41.870Z,49.90
2019-06-26T00:05:11.530Z,49.90
2019-06-26T00:07:40.861Z,49.90
2019-06-26T00:10:10.434Z,50.00
2019-06-26T00:12:39.812Z,50.00
2019-06-26T00:15:09.965Z,50.00
2019-06-26T00:17:39.284Z,50.20
2019-06-26T00:20:08.937Z,50.30
2019-06-26T00:22:38.260Z,50.50
2019-06-26T00:25:07.827Z,50.60
2019-06-26T00:27:37.138Z,50.70
2019-06-26T00:30:08.071Z,51.30
2019-06-26T00:32:37.376Z,50.80
2019-06-26T00:35:07.444Z,50.80
2019-06-26T00:37:36.897Z,50.70
2019-06-26T00:40:07.805Z,50.80
2019-06-26T00:42:37.138Z,50.80
2019-06-26T00:45:08.084Z,50.90
2019-06-26T00:47:37.400Z,50.90
2019-06-26T00:50:07.856Z,50.90
2019-06-26T00:52:37.202Z,51.30
2019-06-26T00:55:06.748Z,50.80
2019-06-26T00:57:36.341Z,50.90
2019-06-26T01:00:10.587Z,51.00
2019-06-26T01:02:39.983Z,50.90
2019-06-26T01:05:13.001Z,50.90
2019-06-26T01:07:42.346Z,50.90
2019-06-26T01:10:13.104Z,50.90
2019-06-26T01:12:42.437Z,51.00
2019-06-26T01:15:11.948Z,51.00
2019-06-26T01:17:41.293Z,51.00
2019-06-26T01:20:10.847Z,51.10
2019-06-26T01:22:40.159Z,51.00
2019-06-26T01:25:09.649Z,50.90
2019-06-26T01:27:38.974Z,51.00
2019-06-26T01:30:08.460Z,51.10
2019-06-26T01:32:37.785Z,51.20
2019-06-26T01:35:07.700Z,51.30
2019-06-26T01:37:38.041Z,51.50
2019-06-26T01:40:07.431Z,51.70
2019-06-26T01:42:36.756Z,51.70
2019-06-26T01:45:07.418Z,52.20
2019-06-26T01:47:36.817Z,51.70
2019-06-26T01:50:09.530Z,51.70
2019-06-26T01:52:38.866Z,51.90
2019-06-26T01:55:08.615Z,51.80
2019-06-26T01:57:38.914Z,52.10
2019-06-26T02:00:10.178Z,52.30
2019-06-26T02:02:39.521Z,52.40
2019-06-26T02:05:10.034Z,53.10
2019-06-26T02:07:53.994Z,52.60
2019-06-26T02:10:23.388Z,52.70
2019-06-26T02:12:52.702Z,52.70
2019-06-26T02:15:22.009Z,52.70
2019-06-26T02:17:51.349Z,52.60
2019-06-26T02:20:20.664Z,52.80
2019-06-26T02:22:50.005Z,52.90
2019-06-26T02:25:19.317Z,52.90
2019-06-26T02:27:49.600Z,53.00
2019-06-26T02:30:18.926Z,52.60
2019-06-26T02:32:48.239Z,53.20
2019-06-26T02:35:18.038Z,53.20
2019-06-26T02:37:47.343Z,53.30
2019-06-26T02:40:17.221Z,53.30
2019-06-26T02:42:46.546Z,53.30
2019-06-26T02:45:16.111Z,53.30
2019-06-26T02:47:45.430Z,53.30
2019-06-26T02:50:14.750Z,53.40
2019-06-26T02:52:44.056Z,53.40
2019-06-26T02:55:13.708Z,53.60
2019-06-26T02:57:43.022Z,53.80
2019-06-26T03:00:12.476Z,54.00
2019-06-26T03:02:41.787Z,54.20
2019-06-26T03:05:11.099Z,54.20
2019-06-26T03:07:40.413Z,54.30
2019-06-26T03:10:09.866Z,54.20
2019-06-26T03:12:39.172Z,54.20
2019-06-26T03:15:09.856Z,54.20
2019-06-26T03:17:54.331Z,54.20
2019-06-26T03:20:13.739Z,54.20
2019-06-26T03:22:43.049Z,54.30
2019-06-26T03:25:12.374Z,54.40
2019-06-26T03:27:41.663Z,54.30
2019-06-26T03:30:11.039Z,54.50
2019-06-26T03:32:40.375Z,54.50
2019-06-26T03:35:09.829Z,54.80
2019-06-26T03:37:39.168Z,54.80
2019-06-26T03:40:08.737Z,54.80
2019-06-26T03:42:38.052Z,54.90
2019-06-26T03:45:24.159Z,55.00
2019-06-26T03:47:38.965Z,55.40
2019-06-26T03:50:08.525Z,55.90
2019-06-26T03:52:37.902Z,56.70
2019-06-26T03:55:07.451Z,57.60
2019-06-26T03:57:37.733Z,58.20
2019-06-26T04:00:09.188Z,59.10
2019-06-26T04:02:38.515Z,60.00
2019-06-26T04:05:08.320Z,60.30
2019-06-26T04:07:38.749Z,60.30
2019-06-26T04:10:08.408Z,60.00
2019-06-26T04:12:37.716Z,60.20
2019-06-26T04:15:07.567Z,60.30
2019-06-26T04:17:36.882Z,60.10
2019-06-26T04:20:07.043Z,61.80
2019-06-26T04:22:36.352Z,64.90
2019-06-26T04:25:07.180Z,67.20
2019-06-26T04:27:36.509Z,67.70
2019-06-26T04:30:10.422Z,68.20
2019-06-26T04:32:39.745Z,68.80
2019-06-26T04:35:09.253Z,69.10
2019-06-26T04:37:38.636Z,69.20
2019-06-26T04:40:08.396Z,68.00
2019-06-26T04:42:37.721Z,68.70
2019-06-26T04:45:07.964Z,66.40
2019-06-26T04:47:37.357Z,65.20
2019-06-26T04:50:08.717Z,64.40
2019-06-26T04:52:38.058Z,63.40
2019-06-26T04:55:08.120Z,63.00
2019-06-26T04:57:37.462Z,62.50
2019-06-26T05:00:07.931Z,63.10
2019-06-26T05:02:37.332Z,62.90
2019-06-26T05:05:08.466Z,62.50
2019-06-26T05:07:37.787Z,62.60
2019-06-26T05:10:10.348Z,61.90
2019-06-26T05:12:39.680Z,61.90
2019-06-26T05:15:09.655Z,61.80
2019-06-26T05:17:39.032Z,62.10
2019-06-26T05:20:09.100Z,62.10
2019-06-26T05:22:38.454Z,62.50
2019-06-26T05:25:09.073Z,62.30
2019-06-26T05:27:38.388Z,62.50
2019-06-26T05:30:08.451Z,62.30
2019-06-26T05:32:37.768Z,62.70
2019-06-26T05:35:09.803Z,63.10
2019-06-26T05:37:58.528Z,62.90
2019-06-26T05:40:27.880Z,63.00
2019-06-26T05:42:57.217Z,62.90
2019-06-26T05:45:27.711Z,62.70
2019-06-26T05:47:57.035Z,62.30
2019-06-26T05:50:26.500Z,62.60
2019-06-26T05:52:55.824Z,62.70
2019-06-26T05:55:26.123Z,62.60
2019-06-26T05:57:55.456Z,62.20
2019-06-26T06:00:24.917Z,62.40
2019-06-26T06:02:54.345Z,62.60
2019-06-26T06:05:23.716Z,62.50
2019-06-26T06:07:53.036Z,62.50
2019-06-26T06:10:22.436Z,62.00
2019-06-26T06:12:51.756Z,62.60
2019-06-26T06:15:21.164Z,62.80
2019-06-26T06:17:50.495Z,62.40
2019-06-26T06:20:25.418Z,62.30
2019-06-26T06:22:54.817Z,62.00
2019-06-26T06:25:24.165Z,61.60
2019-06-26T06:27:53.488Z,61.10
2019-06-26T06:30:23.061Z,61.20
2019-06-26T06:32:52.392Z,61.30
2019-06-26T06:35:21.724Z,61.60
2019-06-26T06:37:51.064Z,61.40
2019-06-26T06:40:20.467Z,61.10
2019-06-26T06:42:50.154Z,60.90
2019-06-26T06:45:20.140Z,60.60
2019-06-26T06:47:49.513Z,60.30
2019-06-26T06:50:18.839Z,60.90
2019-06-26T06:52:48.191Z,60.20
2019-06-26T06:55:18.585Z,60.40
2019-06-26T06:57:47.903Z,60.30
2019-06-26T07:00:17.671Z,60.00
2019-06-26T07:02:46.997Z,59.80
2019-06-26T07:05:16.430Z,59.90
2019-06-26T07:07:45.741Z,59.80
2019-06-26T07:10:15.138Z,59.70
2019-06-26T07:12:44.472Z,60.00
2019-06-26T07:15:13.929Z,59.50
2019-06-26T07:17:43.261Z,59.70
2019-06-26T07:20:12.857Z,59.80
2019-06-26T07:22:42.192Z,59.50
2019-06-26T07:25:12.564Z,59.50
2019-06-26T07:27:42.007Z,59.50
2019-06-26T07:30:11.878Z,59.50
2019-06-26T07:32:41.204Z,59.90
2019-06-26T07:35:10.618Z,59.80
2019-06-26T07:37:39.971Z,59.80
2019-06-26T07:40:09.528Z,60.10
2019-06-26T07:42:38.850Z,59.80
2019-06-26T07:45:09.011Z,60.00
2019-06-26T07:47:43.599Z,59.70
2019-06-26T07:50:09.527Z,60.00
2019-06-26T07:52:38.847Z,60.40
2019-06-26T07:55:11.794Z,59.90
2019-06-26T07:57:39.453Z,58.90
2019-06-26T08:00:09.225Z,59.30
2019-06-26T08:02:38.572Z,59.50
2019-06-26T08:05:09.001Z,59.10
2019-06-26T08:07:38.375Z,59.50
2019-06-26T08:10:09.101Z,58.60
2019-06-26T08:12:38.449Z,58.80
2019-06-26T08:15:08.216Z,58.70
2019-06-26T08:17:37.560Z,58.60
2019-06-26T08:20:07.112Z,58.60
2019-06-26T08:22:37.400Z,58.60
2019-06-26T08:25:08.466Z,58.60
2019-06-26T08:27:37.867Z,58.50
2019-06-26T08:30:09.317Z,58.40
2019-06-26T08:32:39.621Z,58.40
2019-06-26T08:35:09.088Z,58.20
2019-06-26T08:37:38.421Z,58.30
2019-06-26T08:40:08.399Z,58.10
2019-06-26T08:42:37.777Z,58.20
2019-06-26T08:45:08.173Z,58.50
2019-06-26T08:47:37.503Z,58.10
2019-06-26T08:50:08.750Z,57.80
2019-06-26T08:52:38.071Z,57.80
2019-06-26T08:55:08.129Z,58.00
2019-06-26T08:57:37.553Z,57.40
2019-06-26T09:00:09.895Z,57.30
2019-06-26T09:02:39.224Z,58.00
2019-06-26T09:05:09.483Z,57.40
2019-06-26T09:07:38.867Z,57.60
2019-06-26T09:10:08.803Z,57.50
2019-06-26T09:12:38.164Z,57.50
2019-06-26T09:15:07.929Z,57.40
2019-06-26T09:17:37.252Z,57.50
2019-06-26T09:20:06.865Z,57.40
2019-06-26T09:22:36.274Z,57.40
2019-06-26T09:25:20.805Z,57.40
2019-06-26T09:27:39.801Z,57.20
2019-06-26T09:30:09.666Z,57.20
2019-06-26T09:32:38.976Z,56.90
2019-06-26T09:35:08.844Z,56.60
2019-06-26T09:37:38.186Z,56.40
2019-06-26T09:40:07.793Z,56.20
2019-06-26T09:42:37.096Z,56.00
2019-06-26T09:45:07.307Z,56.00
2019-06-26T09:47:36.625Z,56.00
2019-06-26T09:50:06.612Z,56.00
2019-06-26T09:52:35.986Z,56.10
2019-06-26T09:55:06.796Z,56.20
2019-06-26T09:57:36.164Z,56.60
2019-06-26T10:00:10.618Z,56.60
2019-06-26T10:02:40.049Z,56.80
2019-06-26T10:05:09.673Z,57.00
2019-06-26T10:07:39.016Z,56.90
2019-06-26T10:10:09.680Z,57.50
2019-06-26T10:12:39.008Z,57.20
2019-06-26T10:15:08.565Z,58.90
2019-06-26T10:17:37.903Z,58.80
2019-06-26T10:20:08.137Z,59.00
2019-06-26T10:22:37.447Z,58.70
2019-06-26T10:25:11.116Z,59.70
2019-06-26T10:27:38.607Z,59.70
2019-06-26T10:30:09.369Z,58.90
2019-06-26T10:32:38.698Z,59.10
2019-06-26T10:35:08.379Z,59.30
2019-06-26T10:37:37.707Z,59.20
2019-06-26T10:40:07.400Z,59.40
2019-06-26T10:42:36.716Z,58.90
2019-06-26T10:45:07.651Z,59.50
2019-06-26T10:47:39.621Z,59.20
2019-06-26T10:50:08.368Z,59.40
2019-06-26T10:52:37.685Z,58.30
2019-06-26T10:55:08.334Z,58.00
2019-06-26T10:57:37.652Z,58.30
2019-06-26T11:00:08.022Z,58.20
2019-06-26T11:02:37.341Z,58.00
2019-06-26T11:05:07.709Z,57.90
2019-06-26T11:07:37.040Z,58.30
2019-06-26T11:10:08.090Z,58.30
2019-06-26T11:12:38.491Z,57.60
2019-06-26T11:15:08.189Z,58.60
2019-06-26T11:17:37.504Z,58.50
2019-06-26T11:20:10.415Z,58.60
2019-06-26T11:22:39.852Z,58.50
2019-06-26T11:25:09.716Z,58.60
2019-06-26T11:27:39.044Z,58.70
2019-06-26T11:30:10.031Z,58.00
2019-06-26T11:32:39.420Z,58.10
2019-06-26T11:35:09.396Z,58.50
2019-06-26T11:37:38.721Z,58.70
2019-06-26T11:40:08.994Z,58.60
2019-06-26T11:42:38.317Z,58.40
2019-06-26T11:45:08.289Z,58.50
2019-06-26T11:47:37.883Z,58.60
2019-06-26T11:50:12.083Z,58.40
2019-06-26T11:52:41.401Z,58.50
2019-06-26T11:55:12.358Z,58.20
2019-06-26T11:57:41.783Z,58.00
2019-06-26T12:00:14.277Z,57.90
2019-06-26T12:02:43.680Z,57.80
2019-06-26T12:05:14.746Z,57.90
2019-06-26T12:07:44.086Z,57.70
2019-06-26T12:10:13.918Z,58.00
2019-06-26T12:12:43.345Z,57.90
2019-06-26T12:15:13.316Z,57.70
2019-06-26T12:17:42.633Z,57.70
2019-06-26T12:20:18.759Z,57.50
2019-06-26T12:22:43.313Z,57.50
2019-06-26T12:25:12.705Z,57.60
2019-06-26T12:27:42.042Z,57.40
2019-06-26T12:30:11.798Z,57.30
2019-06-26T12:32:47.406Z,57.00
2019-06-26T12:35:12.893Z,57.00
2019-06-26T12:37:42.222Z,57.00
2019-06-26T12:40:11.986Z,56.60
2019-06-26T12:42:41.385Z,56.70
2019-06-26T12:45:11.083Z,56.80
2019-06-26T12:47:40.396Z,56.70
2019-06-26T12:50:12.013Z,56.70
2019-06-26T12:52:41.341Z,56.90
2019-06-26T12:55:11.097Z,56.90
2019-06-26T12:57:40.425Z,56.90
2019-06-26T13:00:11.085Z,56.80
2019-06-26T13:02:40.469Z,56.90
2019-06-26T13:05:10.130Z,56.80
2019-06-26T13:07:39.490Z,56.90
2019-06-26T13:10:09.608Z,56.80
2019-06-26T13:12:38.941Z,56.80
2019-06-26T13:15:09.101Z,56.80
2019-06-26T13:17:38.422Z,56.80
2019-06-26T13:20:10.515Z,56.80
2019-06-26T13:22:40.068Z,56.60
2019-06-26T13:25:10.377Z,56.70
2019-06-26T13:27:39.701Z,56.60
2019-06-26T13:30:09.362Z,56.50
2019-06-26T13:32:38.686Z,56.50
2019-06-26T13:35:08.445Z,56.50
2019-06-26T13:37:37.768Z,56.30
2019-06-26T13:40:07.217Z,56.50
2019-06-26T13:42:36.545Z,56.50
2019-06-26T13:45:07.498Z,56.60
2019-06-26T13:47:36.880Z,56.60
2019-06-26T13:50:08.205Z,56.50
2019-06-26T13:52:37.533Z,56.30
2019-06-26T13:55:06.994Z,56.40
2019-06-26T13:57:36.364Z,56.50
2019-06-26T14:00:07.243Z,56.50
2019-06-26T14:02:36.601Z,56.40
2019-06-26T14:05:09.838Z,56.50
2019-06-26T14:07:38.375Z,56.50
2019-06-26T14:10:08.807Z,56.40
2019-06-26T14:12:38.184Z,56.40
2019-06-26T14:15:08.532Z,56.50
2019-06-26T14:17:37.852Z,56.50
2019-06-26T14:20:08.299Z,56.40
2019-06-26T14:22:37.634Z,56.40
2019-06-26T14:25:07.479Z,56.40
2019-06-26T14:27:36.804Z,56.50
2019-06-26T14:30:07.243Z,56.40
2019-06-26T14:32:36.557Z,56.30
2019-06-26T14:35:06.412Z,56.30
2019-06-26T14:37:35.731Z,56.30
2019-06-26T14:40:08.051Z,56.30
2019-06-26T14:42:37.689Z,56.20
2019-06-26T14:45:08.341Z,56.20
2019-06-26T14:47:37.666Z,56.30
2019-06-26T14:50:08.114Z,56.20
2019-06-26T14:52:37.441Z,56.20
2019-06-26T14:55:07.021Z,56.20
2019-06-26T14:57:36.420Z,56.20
2019-06-26T15:00:07.245Z,56.20
2019-06-26T15:02:36.566Z,56.10
2019-06-26T15:05:07.225Z,56.10
2019-06-26T15:07:36.564Z,56.10
2019-06-26T15:10:08.117Z,56.10
2019-06-26T15:12:37.446Z,56.10
2019-06-26T15:15:08.802Z,56.00
2019-06-26T15:17:38.120Z,56.00
2019-06-26T15:20:08.467Z,56.50
2019-06-26T15:22:37.815Z,56.00
2019-06-26T15:25:08.286Z,55.90
2019-06-26T15:27:37.633Z,55.40
2019-06-26T15:30:08.113Z,56.00
2019-06-26T15:32:38.044Z,55.90
2019-06-26T15:35:08.783Z,55.90
2019-06-26T15:37:38.111Z,55.90
2019-06-26T15:40:07.858Z,55.80
2019-06-26T15:42:37.447Z,55.90
2019-06-26T15:45:07.317Z,55.80
2019-06-26T15:47:36.635Z,55.80
2019-06-26T15:50:10.621Z,55.80
2019-06-26T15:52:38.656Z,55.90
2019-06-26T15:55:08.423Z,55.80
2019-06-26T15:57:37.758Z,55.70
2019-06-26T16:00:07.864Z,55.90
2019-06-26T16:02:37.261Z,55.70
2019-06-26T16:05:08.284Z,55.60
2019-06-26T16:07:38.565Z,55.60
2019-06-26T16:10:08.430Z,55.50
2019-06-26T16:12:37.741Z,55.40
2019-06-26T16:15:07.598Z,55.40
2019-06-26T16:17:44.262Z,55.30
2019-06-26T16:20:13.747Z,55.20
2019-06-26T16:22:43.066Z,55.10
2019-06-26T16:25:13.925Z,55.20
2019-06-26T16:27:43.255Z,55.10
2019-06-26T16:30:13.085Z,55.10
2019-06-26T16:32:42.400Z,55.10
2019-06-26T16:35:12.483Z,55.10
2019-06-26T16:37:41.896Z,55.40
2019-06-26T16:40:11.300Z,55.50
2019-06-26T16:42:40.997Z,55.40
2019-06-26T16:45:10.707Z,55.80
2019-06-26T16:47:40.022Z,55.80
2019-06-26T16:50:09.603Z,55.80
2019-06-26T16:52:49.230Z,55.80
2019-06-26T16:55:10.185Z,55.80
2019-06-26T16:57:39.513Z,56.30
2019-06-26T17:00:10.371Z,56.40
2019-06-26T17:02:40.231Z,55.90
2019-06-26T17:05:10.602Z,56.20
2019-06-26T17:07:40.012Z,56.50
2019-06-26T17:10:09.590Z,56.50
2019-06-26T17:12:38.900Z,56.30
2019-06-26T17:15:08.976Z,56.30
2019-06-26T17:17:38.293Z,56.20
2019-06-26T17:20:07.968Z,56.20
2019-06-26T17:22:37.285Z,56.10
2019-06-26T17:25:07.503Z,56.20
2019-06-26T17:27:36.849Z,56.10
2019-06-26T17:30:09.522Z,56.20
2019-06-26T17:32:38.840Z,56.20
2019-06-26T17:35:08.754Z,56.20
2019-06-26T17:37:38.072Z,56.30
2019-06-26T17:40:08.610Z,56.40
2019-06-26T17:42:37.933Z,56.50
2019-06-26T17:45:07.911Z,56.50
2019-06-26T17:47:37.245Z,56.60
2019-06-26T17:50:07.903Z,56.60
2019-06-26T17:52:38.593Z,56.70
2019-06-26T17:55:09.880Z,56.80
2019-06-26T17:57:39.229Z,56.90
2019-06-26T18:00:11.529Z,56.90
2019-06-26T18:02:41.232Z,57.00
2019-06-26T18:05:10.729Z,57.10
2019-06-26T18:07:40.065Z,57.10
2019-06-26T18:10:09.553Z,57.20
2019-06-26T18:12:38.900Z,57.20
2019-06-26T18:15:08.535Z,57.30
2019-06-26T18:17:37.860Z,57.40
2019-06-26T18:20:07.917Z,57.40
2019-06-26T18:22:38.204Z,57.40
2019-06-26T18:25:07.868Z,57.20
2019-06-26T18:27:37.192Z,57.30
2019-06-26T18:30:07.958Z,57.50
2019-06-26T18:32:37.292Z,57.30
2019-06-26T18:35:07.917Z,59.40
2019-06-26T18:37:37.233Z,58.80
2019-06-26T18:40:08.294Z,59.20
2019-06-26T18:42:37.609Z,57.80
2019-06-26T18:45:08.333Z,59.50
2019-06-26T18:47:37.663Z,59.20
2019-06-26T18:50:07.931Z,59.50
2019-06-26T18:52:37.292Z,60.00
2019-06-26T18:55:07.091Z,59.70
2019-06-26T18:57:36.409Z,59.40
2019-06-26T19:00:08.137Z,59.80
2019-06-26T19:02:37.535Z,59.90
2019-06-26T19:05:08.601Z,59.80
2019-06-26T19:07:37.926Z,59.70
2019-06-26T19:10:10.584Z,59.80
2019-06-26T19:12:39.904Z,60.10
2019-06-26T19:15:09.767Z,60.00
2019-06-26T19:17:42.397Z,60.00
2019-06-26T19:20:12.616Z,60.50
2019-06-26T19:22:41.952Z,59.40
2019-06-26T19:25:11.460Z,57.10
2019-06-26T19:27:40.783Z,58.60
2019-06-26T19:30:10.733Z,58.00
2019-06-26T19:32:40.100Z,57.10
2019-06-26T19:35:18.594Z,56.10
2019-06-26T19:37:40.566Z,55.90
2019-06-26T19:40:10.455Z,56.00
2019-06-26T19:42:39.785Z,56.60
2019-06-26T19:45:10.349Z,57.10
2019-06-26T19:47:40.726Z,57.40
2019-06-26T19:50:10.952Z,56.90
2019-06-26T19:52:40.303Z,55.80
2019-06-26T19:55:09.928Z,55.30
2019-06-26T19:57:39.280Z,54.30
2019-06-26T20:00:10.662Z,54.80
2019-06-26T20:02:40.204Z,54.80
2019-06-26T20:05:09.986Z,55.60
2019-06-26T20:07:39.532Z,54.80
2019-06-26T20:10:09.298Z,54.80
2019-06-26T20:12:38.700Z,54.30
2019-06-26T20:15:08.219Z,54.80
2019-06-26T20:17:37.573Z,54.10
2019-06-26T20:20:07.524Z,53.90
2019-06-26T20:22:36.913Z,54.20
2019-06-26T20:25:08.283Z,53.50
2019-06-26T20:27:37.689Z,53.70
2019-06-26T20:30:09.894Z,53.20
2019-06-26T20:32:39.643Z,53.00
2019-06-26T20:35:08.957Z,53.20
2019-06-26T20:37:38.277Z,52.90
2019-06-26T20:40:08.337Z,53.00
2019-06-26T20:42:37.654Z,52.80
2019-06-26T20:45:08.820Z,53.20
2019-06-26T20:47:38.129Z,52.60
2019-06-26T20:50:07.623Z,52.40
2019-06-26T20:52:36.934Z,52.50
2019-06-26T20:55:06.693Z,52.60
2019-06-26T20:57:36.964Z,52.40
2019-06-26T21:00:08.532Z,52.10
2019-06-26T21:02:38.324Z,52.10
2019-06-26T21:05:07.883Z,52.80
2019-06-26T21:07:37.282Z,52.10
2019-06-26T21:10:06.894Z,52.20
2019-06-26T21:12:36.277Z,51.90
2019-06-26T21:15:08.146Z,52.00
2019-06-26T21:17:37.519Z,52.10
2019-06-26T21:20:07.677Z,51.70
2019-06-26T21:22:37.002Z,52.40
2019-06-26T21:25:17.793Z,51.80
2019-06-26T21:27:38.285Z,51.40
2019-06-26T21:30:08.067Z,52.30
2019-06-26T21:32:37.376Z,51.50
2019-06-26T21:35:06.799Z,51.30
2019-06-26T21:37:36.204Z,50.80
2019-06-26T21:40:06.076Z,50.70
2019-06-26T21:42:35.400Z,50.70
2019-06-26T21:45:05.405Z,50.90
2019-06-26T21:47:34.733Z,51.00
2019-06-26T21:50:05.829Z,51.00
2019-06-26T21:52:36.348Z,50.50
2019-06-26T21:55:06.512Z,51.00
2019-06-26T21:57:53.810Z,50.90
2019-06-26T22:00:41.417Z,50.70
2019-06-26T22:03:29.252Z,51.30
2019-06-26T22:06:12.794Z,50.70
2019-06-26T22:09:02.040Z,50.70
2019-06-26T22:11:32.965Z,50.80
2019-06-26T22:14:02.366Z,50.70
2019-06-26T22:16:31.700Z,50.50
2019-06-26T22:19:01.017Z,50.40
2019-06-26T22:21:30.388Z,51.10
2019-06-26T22:23:59.715Z,50.90
2019-06-26T22:26:29.108Z,51.10
2019-06-26T22:28:58.425Z,51.00
2019-06-26T22:31:27.755Z,50.80
2019-06-26T22:33:58.165Z,51.00
2019-06-26T22:36:27.480Z,50.70
2019-06-26T22:38:56.801Z,50.70
2019-06-26T22:41:26.117Z,50.80
2019-06-26T22:43:55.434Z,50.80
2019-06-26T22:46:24.750Z,51.40
2019-06-26T22:48:54.047Z,51.20
2019-06-26T22:51:23.429Z,50.90
2019-06-26T22:53:52.736Z,51.20
2019-06-26T22:56:22.056Z,51.40
2019-06-26T22:58:51.364Z,51.30
2019-06-26T23:01:20.704Z,51.50
2019-06-26T23:03:50.020Z,51.30
2019-06-26T23:06:19.347Z,51.50
2019-06-26T23:08:48.662Z,51.80
2019-06-26T23:11:17.988Z,51.80
2019-06-26T23:13:47.315Z,51.90
2019-06-26T23:16:16.628Z,52.10
2019-06-26T23:18:45.957Z,51.80
2019-06-26T23:21:15.361Z,52.00
2019-06-26T23:23:44.685Z,52.60
2019-06-26T23:26:23.565Z,51.80
2019-06-26T23:28:45.018Z,51.70
2019-06-26T23:31:14.340Z,51.90
2019-06-26T23:33:43.667Z,52.00
2019-06-26T23:36:12.992Z,52.10
2019-06-26T23:38:42.317Z,52.30
2019-06-26T23:41:11.648Z,52.60
2019-06-26T23:43:40.970Z,51.90
2019-06-26T23:46:10.287Z,52.00
2019-06-26T23:48:39.611Z,51.90
2019-06-26T23:51:08.940Z,51.90
2019-06-26T23:53:38.249Z,52.20
2019-06-26T23:56:07.572Z,52.20
2019-06-26T23:58:37.976Z,52.00
